sensor_id;sensor_type;location;lat;lon;timestamp;pressure;altitude;pressure_sealevel;temperature;humidity
30421;BME280;17218;54.070;10.012;2023-05-07T00:01:18;102034.81;;;8.86;100.00
30421;BME280;17218;54.070;10.012;2023-05-07T00:03:44;102034.66;;;8.78;100.00
30421;BME280;17218;54.070;10.012;2023-05-07T00:06:12;102036.34;;;8.76;100.00
30421;BME280;17218;54.070;10.012;2023-05-07T00:08:39;102030.88;;;8.64;100.00
30421;BME280;17218;54.070;10.012;2023-05-07T00:11:06;102034.78;;;8.46;100.00
30421;BME280;17218;54.070;10.012;2023-05-07T00:13:32;102045.97;;;8.45;100.00
30421;BME280;17218;54.070;10.012;2023-05-07T00:16:00;102057.13;;;8.44;100.00
30421;BME280;17218;54.070;10.012;2023-05-07T00:18:27;102057.09;;;8.42;100.00
30421;BME280;17218;54.070;10.012;2023-05-07T00:20:53;102047.53;;;8.40;100.00
30421;BME280;17218;54.070;10.012;2023-05-07T00:23:21;102057.94;;;8.41;100.00
30421;BME280;17218;54.070;10.012;2023-05-07T00:25:48;102058.81;;;8.43;100.00
30421;BME280;17218;54.070;10.012;2023-05-07T00:28:14;102054.72;;;8.52;100.00
30421;BME280;17218;54.070;10.012;2023-05-07T00:30:41;102057.28;;;8.50;100.00
30421;BME280;17218;54.070;10.012;2023-05-07T00:33:07;102058.00;;;8.44;100.00
30421;BME280;17218;54.070;10.012;2023-05-07T00:35:34;102042.56;;;8.47;100.00
30421;BME280;17218;54.070;10.012;2023-05-07T00:38:00;102046.16;;;8.54;100.00
30421;BME280;17218;54.070;10.012;2023-05-07T00:40:28;102045.53;;;8.63;100.00
30421;BME280;17218;54.070;10.012;2023-05-07T00:42:54;102046.31;;;8.61;100.00
30421;BME280;17218;54.070;10.012;2023-05-07T00:45:26;102047.16;;;8.58;100.00
30421;BME280;17218;54.070;10.012;2023-05-07T00:47:54;102038.34;;;8.51;100.00
30421;BME280;17218;54.070;10.012;2023-05-07T00:50:20;102035.25;;;8.66;100.00
30421;BME280;17218;54.070;10.012;2023-05-07T00:52:47;102038.38;;;8.53;100.00
30421;BME280;17218;54.070;10.012;2023-05-07T00:55:14;102035.91;;;8.56;100.00
30421;BME280;17218;54.070;10.012;2023-05-07T00:57:42;102041.81;;;8.52;100.00
30421;BME280;17218;54.070;10.012;2023-05-07T01:00:09;102036.53;;;8.47;100.00
30421;BME280;17218;54.070;10.012;2023-05-07T01:02:37;102038.25;;;8.46;100.00
30421;BME280;17218;54.070;10.012;2023-05-07T01:05:05;102042.38;;;8.40;100.00
30421;BME280;17218;54.070;10.012;2023-05-07T01:07:34;102040.56;;;8.34;100.00
30421;BME280;17218;54.070;10.012;2023-05-07T01:10:03;102043.09;;;8.32;100.00
30421;BME280;17218;54.070;10.012;2023-05-07T01:12:30;102035.41;;;8.34;100.00
30421;BME280;17218;54.070;10.012;2023-05-07T01:14:58;102027.69;;;8.35;100.00
30421;BME280;17218;54.070;10.012;2023-05-07T01:17:25;102034.56;;;8.37;100.00
30421;BME280;17218;54.070;10.012;2023-05-07T01:19:52;102040.63;;;8.37;100.00
30421;BME280;17218;54.070;10.012;2023-05-07T01:22:28;102037.91;;;8.32;100.00
30421;BME280;17218;54.070;10.012;2023-05-07T01:24:55;102049.19;;;8.36;100.00
30421;BME280;17218;54.070;10.012;2023-05-07T01:27:21;102056.78;;;8.28;100.00
30421;BME280;17218;54.070;10.012;2023-05-07T01:29:48;102044.19;;;8.42;100.00
30421;BME280;17218;54.070;10.012;2023-05-07T01:32:18;102036.44;;;8.42;100.00
30421;BME280;17218;54.070;10.012;2023-05-07T01:34:46;102041.28;;;8.28;100.00
30421;BME280;17218;54.070;10.012;2023-05-07T01:37:14;102041.28;;;8.28;100.00
30421;BME280;17218;54.070;10.012;2023-05-07T01:39:42;102043.25;;;8.40;100.00
30421;BME280;17218;54.070;10.012;2023-05-07T01:42:09;102030.41;;;8.43;100.00
30421;BME280;17218;54.070;10.012;2023-05-07T01:44:35;102036.19;;;8.31;100.00
30421;BME280;17218;54.070;10.012;2023-05-07T01:47:02;102032.53;;;8.23;100.00
30421;BME280;17218;54.070;10.012;2023-05-07T01:49:29;102031.94;;;8.33;100.00
30421;BME280;17218;54.070;10.012;2023-05-07T01:51:57;102027.50;;;8.28;100.00
30421;BME280;17218;54.070;10.012;2023-05-07T01:54:25;102032.81;;;8.34;100.00
30421;BME280;17218;54.070;10.012;2023-05-07T01:56:55;102029.16;;;8.26;100.00
30421;BME280;17218;54.070;10.012;2023-05-07T01:59:22;102025.69;;;8.23;100.00
30421;BME280;17218;54.070;10.012;2023-05-07T02:01:48;102035.97;;;8.22;100.00
30421;BME280;17218;54.070;10.012;2023-05-07T02:04:15;102029.16;;;8.26;100.00
30421;BME280;17218;54.070;10.012;2023-05-07T02:06:41;102043.56;;;8.16;100.00
30421;BME280;17218;54.070;10.012;2023-05-07T02:09:08;102032.16;;;8.06;100.00
30421;BME280;17218;54.070;10.012;2023-05-07T02:11:35;102032.22;;;8.09;100.00
30421;BME280;17218;54.070;10.012;2023-05-07T02:14:02;102030.75;;;8.19;100.00
30421;BME280;17218;54.070;10.012;2023-05-07T02:16:29;102036.75;;;8.19;100.00
30421;BME280;17218;54.070;10.012;2023-05-07T02:18:56;102026.78;;;8.33;100.00
30421;BME280;17218;54.070;10.012;2023-05-07T02:21:23;102030.28;;;8.37;100.00
30421;BME280;17218;54.070;10.012;2023-05-07T02:23:50;102024.03;;;8.27;100.00
30421;BME280;17218;54.070;10.012;2023-05-07T02:26:18;102034.88;;;8.12;100.00
30421;BME280;17218;54.070;10.012;2023-05-07T02:28:44;102048.50;;;8.06;100.00
30421;BME280;17218;54.070;10.012;2023-05-07T02:31:12;102037.34;;;8.07;100.00
30421;BME280;17218;54.070;10.012;2023-05-07T02:33:39;102039.19;;;8.11;100.00
30421;BME280;17218;54.070;10.012;2023-05-07T02:36:06;102040.88;;;8.11;100.00
30421;BME280;17218;54.070;10.012;2023-05-07T02:38:33;102044.19;;;8.05;100.00
30421;BME280;17218;54.070;10.012;2023-05-07T02:41:00;102040.72;;;8.05;100.00
30421;BME280;17218;54.070;10.012;2023-05-07T02:43:26;102045.91;;;8.06;100.00
30421;BME280;17218;54.070;10.012;2023-05-07T02:46:00;102049.34;;;8.05;100.00
30421;BME280;17218;54.070;10.012;2023-05-07T02:48:28;102046.69;;;8.02;100.00
30421;BME280;17218;54.070;10.012;2023-05-07T02:50:54;102059.56;;;8.01;100.00
30421;BME280;17218;54.070;10.012;2023-05-07T02:53:21;102056.31;;;8.08;100.00
30421;BME280;17218;54.070;10.012;2023-05-07T02:55:47;102059.84;;;8.11;100.00
30421;BME280;17218;54.070;10.012;2023-05-07T02:58:14;102060.16;;;8.26;100.00
30421;BME280;17218;54.070;10.012;2023-05-07T03:00:40;102055.03;;;8.29;100.00
30421;BME280;17218;54.070;10.012;2023-05-07T03:03:07;102047.88;;;8.15;100.00
30421;BME280;17218;54.070;10.012;2023-05-07T03:05:34;102046.31;;;8.23;100.00
30421;BME280;17218;54.070;10.012;2023-05-07T03:08:01;102052.22;;;8.18;100.00
30421;BME280;17218;54.070;10.012;2023-05-07T03:10:27;102050.31;;;8.10;100.00
30421;BME280;17218;54.070;10.012;2023-05-07T03:12:54;102051.81;;;8.01;100.00
30421;BME280;17218;54.070;10.012;2023-05-07T03:15:20;102046.53;;;7.96;100.00
30421;BME280;17218;54.070;10.012;2023-05-07T03:17:47;102054.34;;;7.99;100.00
30421;BME280;17218;54.070;10.012;2023-05-07T03:20:14;102039.72;;;7.98;100.00
30421;BME280;17218;54.070;10.012;2023-05-07T03:22:42;102046.50;;;7.94;100.00
30421;BME280;17218;54.070;10.012;2023-05-07T03:25:09;102043.13;;;7.97;100.00
30421;BME280;17218;54.070;10.012;2023-05-07T03:27:36;102037.09;;;7.96;100.00
30421;BME280;17218;54.070;10.012;2023-05-07T03:30:04;102052.72;;;8.03;100.00
30421;BME280;17218;54.070;10.012;2023-05-07T03:32:32;102040.03;;;8.12;100.00
30421;BME280;17218;54.070;10.012;2023-05-07T03:34:58;102043.16;;;7.98;100.00
30421;BME280;17218;54.070;10.012;2023-05-07T03:37:25;102057.00;;;8.01;100.00
30421;BME280;17218;54.070;10.012;2023-05-07T03:39:52;102058.81;;;8.06;100.00
30421;BME280;17218;54.070;10.012;2023-05-07T03:45:46;102062.22;;;8.04;100.00
30421;BME280;17218;54.070;10.012;2023-05-07T03:48:13;102056.03;;;7.97;100.00
30421;BME280;17218;54.070;10.012;2023-05-07T03:50:39;102046.53;;;7.96;100.00
30421;BME280;17218;54.070;10.012;2023-05-07T03:53:06;102053.53;;;8.00;100.00
30421;BME280;17218;54.070;10.012;2023-05-07T03:55:34;102052.56;;;7.96;100.00
30421;BME280;17218;54.070;10.012;2023-05-07T03:58:00;102049.34;;;8.05;100.00
30421;BME280;17218;54.070;10.012;2023-05-07T04:00:27;102050.91;;;7.98;100.00
30421;BME280;17218;54.070;10.012;2023-05-07T04:02:53;102062.25;;;8.05;100.00
30421;BME280;17218;54.070;10.012;2023-05-07T04:05:20;102053.78;;;8.11;100.00
30421;BME280;17218;54.070;10.012;2023-05-07T04:07:46;102060.06;;;8.21;100.00
30421;BME280;17218;54.070;10.012;2023-05-07T04:10:13;102059.97;;;8.18;100.00
30421;BME280;17218;54.070;10.012;2023-05-07T04:12:41;102064.06;;;8.09;100.00
30421;BME280;17218;54.070;10.012;2023-05-07T04:15:08;102066.44;;;8.00;100.00
30421;BME280;17218;54.070;10.012;2023-05-07T04:17:35;102072.50;;;8.02;100.00
30421;BME280;17218;54.070;10.012;2023-05-07T04:20:02;102075.91;;;8.01;100.00
30421;BME280;17218;54.070;10.012;2023-05-07T04:22:28;102079.44;;;8.05;100.00
30421;BME280;17218;54.070;10.012;2023-05-07T04:24:55;102078.59;;;8.04;100.00
30421;BME280;17218;54.070;10.012;2023-05-07T04:27:21;102079.47;;;8.06;100.00
30421;BME280;17218;54.070;10.012;2023-05-07T04:29:49;102080.56;;;8.16;100.00
30421;BME280;17218;54.070;10.012;2023-05-07T04:32:16;102081.31;;;8.12;100.00
30421;BME280;17218;54.070;10.012;2023-05-07T04:34:43;102080.50;;;8.13;100.00
30421;BME280;17218;54.070;10.012;2023-05-07T04:37:10;102081.47;;;8.17;100.00
30421;BME280;17218;54.070;10.012;2023-05-07T04:39:36;102078.66;;;8.07;100.00
30421;BME280;17218;54.070;10.012;2023-05-07T04:42:03;102079.53;;;8.08;100.00
30421;BME280;17218;54.070;10.012;2023-05-07T04:44:29;102079.47;;;8.06;100.00
30421;BME280;17218;54.070;10.012;2023-05-07T04:46:58;102086.63;;;8.17;100.00
30421;BME280;17218;54.070;10.012;2023-05-07T04:49:25;102087.34;;;8.11;100.00
30421;BME280;17218;54.070;10.012;2023-05-07T04:51:51;102079.00;;;8.23;100.00
30421;BME280;17218;54.070;10.012;2023-05-07T04:54:18;102087.56;;;8.20;100.00
30421;BME280;17218;54.070;10.012;2023-05-07T04:56:44;102089.25;;;8.18;100.00
30421;BME280;17218;54.070;10.012;2023-05-07T04:59:11;102083.09;;;8.13;100.00
30421;BME280;17218;54.070;10.012;2023-05-07T05:01:37;102091.38;;;8.01;100.00
30421;BME280;17218;54.070;10.012;2023-05-07T05:04:05;102088.78;;;7.99;100.00
30421;BME280;17218;54.070;10.012;2023-05-07T05:06:32;102090.53;;;8.01;100.00
30421;BME280;17218;54.070;10.012;2023-05-07T05:08:58;102089.78;;;8.06;100.00
30421;BME280;17218;54.070;10.012;2023-05-07T05:11:25;102087.50;;;8.17;100.00
30421;BME280;17218;54.070;10.012;2023-05-07T05:13:51;102087.56;;;8.20;100.00
30421;BME280;17218;54.070;10.012;2023-05-07T05:16:17;102089.50;;;8.29;100.00
30421;BME280;17218;54.070;10.012;2023-05-07T05:18:44;102086.84;;;8.26;100.00
30421;BME280;17218;54.070;10.012;2023-05-07T05:21:12;102089.72;;;8.39;100.00
30421;BME280;17218;54.070;10.012;2023-05-07T05:23:38;102091.28;;;8.32;100.00
30421;BME280;17218;54.070;10.012;2023-05-07T05:26:05;102093.88;;;8.32;100.00
30421;BME280;17218;54.070;10.012;2023-05-07T05:28:31;102092.06;;;8.29;100.00
30421;BME280;17218;54.070;10.012;2023-05-07T05:30:58;102093.00;;;8.31;100.00
30421;BME280;17218;54.070;10.012;2023-05-07T05:33:25;102092.38;;;8.43;100.00
30421;BME280;17218;54.070;10.012;2023-05-07T05:35:51;102096.38;;;8.30;100.00
30421;BME280;17218;54.070;10.012;2023-05-07T05:38:19;102097.22;;;8.28;100.00
30421;BME280;17218;54.070;10.012;2023-05-07T05:40:46;102106.22;;;8.45;100.00
30421;BME280;17218;54.070;10.012;2023-05-07T05:43:13;102101.28;;;8.55;100.00
30421;BME280;17218;54.070;10.012;2023-05-07T05:45:40;102104.72;;;8.55;100.00
30421;BME280;17218;54.070;10.012;2023-05-07T05:48:06;102096.47;;;8.69;100.00
30421;BME280;17218;54.070;10.012;2023-05-07T05:50:33;102099.69;;;8.60;100.00
30421;BME280;17218;54.070;10.012;2023-05-07T05:53:00;102109.47;;;8.37;100.00
30421;BME280;17218;54.070;10.012;2023-05-07T05:55:28;102114.84;;;8.46;100.00
30421;BME280;17218;54.070;10.012;2023-05-07T05:57:57;102112.44;;;8.54;100.00
30421;BME280;17218;54.070;10.012;2023-05-07T06:00:24;102120.16;;;8.52;100.00
30421;BME280;17218;54.070;10.012;2023-05-07T06:02:50;102119.97;;;8.44;100.00
30421;BME280;17218;54.070;10.012;2023-05-07T06:05:17;102121.44;;;8.34;100.00
30421;BME280;17218;54.070;10.012;2023-05-07T06:07:43;102117.28;;;8.40;100.00
30421;BME280;17218;54.070;10.012;2023-05-07T06:10:10;102122.81;;;8.55;100.00
30421;BME280;17218;54.070;10.012;2023-05-07T06:12:38;102119.34;;;8.55;100.00
30421;BME280;17218;54.070;10.012;2023-05-07T06:15:05;102118.28;;;8.45;100.00
30421;BME280;17218;54.070;10.012;2023-05-07T06:17:32;102115.72;;;8.46;100.00
30421;BME280;17218;54.070;10.012;2023-05-07T06:19:58;102127.03;;;8.52;100.00
30421;BME280;17218;54.070;10.012;2023-05-07T06:22:25;102128.16;;;8.62;100.00
30421;BME280;17218;54.070;10.012;2023-05-07T06:24:51;102119.53;;;8.61;100.00
30421;BME280;17218;54.070;10.012;2023-05-07T06:27:17;102122.94;;;8.60;100.00
30421;BME280;17218;54.070;10.012;2023-05-07T06:29:47;102117.97;;;8.68;100.00
30421;BME280;17218;54.070;10.012;2023-05-07T06:32:14;102122.00;;;8.56;100.00
30421;BME280;17218;54.070;10.012;2023-05-07T06:34:42;102128.97;;;8.59;100.00
30421;BME280;17218;54.070;10.012;2023-05-07T06:37:08;102124.41;;;8.50;100.00
30421;BME280;17218;54.070;10.012;2023-05-07T06:39:35;102128.78;;;8.54;100.00
30421;BME280;17218;54.070;10.012;2023-05-07T06:42:01;102129.97;;;8.66;100.00
30421;BME280;17218;54.070;10.012;2023-05-07T06:44:29;102129.97;;;8.66;100.00
30421;BME280;17218;54.070;10.012;2023-05-07T06:46:57;102125.00;;;8.75;100.00
30421;BME280;17218;54.070;10.012;2023-05-07T06:49:24;102115.81;;;8.88;100.00
30421;BME280;17218;54.070;10.012;2023-05-07T06:51:51;102126.97;;;8.86;100.00
30421;BME280;17218;54.070;10.012;2023-05-07T06:54:18;102126.09;;;8.85;100.00
30421;BME280;17218;54.070;10.012;2023-05-07T06:56:45;102119.72;;;9.09;100.00
30421;BME280;17218;54.070;10.012;2023-05-07T06:59:11;102123.81;;;8.99;100.00
30421;BME280;17218;54.070;10.012;2023-05-07T07:01:38;102123.19;;;9.10;100.00
30421;BME280;17218;54.070;10.012;2023-05-07T07:04:06;102122.19;;;9.04;100.00
30421;BME280;17218;54.070;10.012;2023-05-07T07:06:32;102118.78;;;9.05;100.00
30421;BME280;17218;54.070;10.012;2023-05-07T07:08:59;102123.25;;;9.13;100.00
30421;BME280;17218;54.070;10.012;2023-05-07T07:11:26;102116.56;;;9.23;100.00
30421;BME280;17218;54.070;10.012;2023-05-07T07:13:52;102116.66;;;9.29;100.00
30421;BME280;17218;54.070;10.012;2023-05-07T07:16:19;102116.28;;;9.53;100.00
30421;BME280;17218;54.070;10.012;2023-05-07T07:18:46;102102.47;;;9.53;100.00
30421;BME280;17218;54.070;10.012;2023-05-07T07:21:14;102093.31;;;9.71;100.00
30421;BME280;17218;54.070;10.012;2023-05-07T07:23:40;102101.19;;;9.78;100.00
30421;BME280;17218;54.070;10.012;2023-05-07T07:26:07;102096.94;;;9.82;100.00
30421;BME280;17218;54.070;10.012;2023-05-07T07:28:33;102102.88;;;9.76;100.00
30421;BME280;17218;54.070;10.012;2023-05-07T07:31:00;102109.81;;;9.76;100.00
30421;BME280;17218;54.070;10.012;2023-05-07T07:33:26;102104.03;;;9.91;100.00
30421;BME280;17218;54.070;10.012;2023-05-07T07:35:53;102104.06;;;9.94;100.00
30421;BME280;17218;54.070;10.012;2023-05-07T07:38:21;102102.63;;;10.12;100.00
30421;BME280;17218;54.070;10.012;2023-05-07T07:40:47;102100.75;;;10.03;100.00
30421;BME280;17218;54.070;10.012;2023-05-07T07:43:14;102104.06;;;9.94;100.00
30421;BME280;17218;54.070;10.012;2023-05-07T07:45:40;102101.84;;;10.16;100.00
30421;BME280;17218;54.070;10.012;2023-05-07T07:48:07;102111.13;;;10.03;100.00
30421;BME280;17218;54.070;10.012;2023-05-07T07:50:33;102105.16;;;10.07;100.00
30421;BME280;17218;54.070;10.012;2023-05-07T07:53:00;102110.34;;;10.09;100.00
30421;BME280;17218;54.070;10.012;2023-05-07T07:55:28;102125.53;;;9.87;100.00
30421;BME280;17218;54.070;10.012;2023-05-07T07:57:56;102110.94;;;9.92;100.00
30421;BME280;17218;54.070;10.012;2023-05-07T08:00:23;102119.47;;;9.86;100.00
30421;BME280;17218;54.070;10.012;2023-05-07T08:02:49;102116.19;;;9.97;100.00
30421;BME280;17218;54.070;10.012;2023-05-07T08:05:16;102118.88;;;10.03;100.00
30421;BME280;17218;54.070;10.012;2023-05-07T08:07:42;102115.56;;;10.10;100.00
30421;BME280;17218;54.070;10.012;2023-05-07T08:10:09;102107.88;;;10.15;100.00
30421;BME280;17218;54.070;10.012;2023-05-07T08:12:37;102119.34;;;10.31;100.00
30421;BME280;17218;54.070;10.012;2023-05-07T08:15:04;102109.72;;;10.22;100.00
30421;BME280;17218;54.070;10.012;2023-05-07T08:17:31;102116.44;;;10.11;100.00
30421;BME280;17218;54.070;10.012;2023-05-07T08:19:57;102114.91;;;10.24;100.00
30421;BME280;17218;54.070;10.012;2023-05-07T08:22:24;102109.78;;;10.27;100.00
30421;BME280;17218;54.070;10.012;2023-05-07T08:24:50;102108.06;;;10.26;100.00
30421;BME280;17218;54.070;10.012;2023-05-07T08:27:18;102116.00;;;10.37;100.00
30421;BME280;17218;54.070;10.012;2023-05-07T08:29:46;102113.75;;;10.57;100.00
30421;BME280;17218;54.070;10.012;2023-05-07T08:32:14;102106.19;;;10.74;100.00
30421;BME280;17218;54.070;10.012;2023-05-07T08:34:40;102112.53;;;10.95;100.00
30421;BME280;17218;54.070;10.012;2023-05-07T08:37:07;102108.47;;;11.15;100.00
30421;BME280;17218;54.070;10.012;2023-05-07T08:39:33;102113.28;;;10.87;100.00
30421;BME280;17218;54.070;10.012;2023-05-07T08:42:00;102108.47;;;11.15;100.00
30421;BME280;17218;54.070;10.012;2023-05-07T08:44:32;102116.22;;;11.13;100.00
30421;BME280;17218;54.070;10.012;2023-05-07T08:47:01;102115.41;;;11.19;100.00
30421;BME280;17218;54.070;10.012;2023-05-07T08:49:29;102128.09;;;10.97;100.00
30421;BME280;17218;54.070;10.012;2023-05-07T08:51:55;102132.59;;;11.11;100.00
30421;BME280;17218;54.070;10.012;2023-05-07T08:54:22;102126.47;;;11.04;100.00
30421;BME280;17218;54.070;10.012;2023-05-07T08:56:48;102134.53;;;11.26;100.00
30421;BME280;17218;54.070;10.012;2023-05-07T08:59:15;102137.69;;;11.04;100.00
30421;BME280;17218;54.070;10.012;2023-05-07T09:01:41;102139.97;;;10.81;100.00
30421;BME280;17218;54.070;10.012;2023-05-07T09:04:09;102149.50;;;10.82;100.00
30421;BME280;17218;54.070;10.012;2023-05-07T09:06:37;102148.63;;;10.80;100.00
30421;BME280;17218;54.070;10.012;2023-05-07T09:09:07;102150.47;;;10.90;100.00
30421;BME280;17218;54.070;10.012;2023-05-07T09:11:33;102147.91;;;10.92;100.00
30421;BME280;17218;54.070;10.012;2023-05-07T09:14:00;102145.47;;;11.03;100.00
30421;BME280;17218;54.070;10.012;2023-05-07T09:16:29;102147.16;;;11.02;100.00
30421;BME280;17218;54.070;10.012;2023-05-07T09:18:58;102142.34;;;11.30;100.00
30421;BME280;17218;54.070;10.012;2023-05-07T09:21:26;102141.66;;;11.45;100.00
30421;BME280;17218;54.070;10.012;2023-05-07T09:23:54;102142.00;;;11.77;100.00
30421;BME280;17218;54.070;10.012;2023-05-07T09:26:22;102131.09;;;12.11;100.00
30421;BME280;17218;54.070;10.012;2023-05-07T09:28:48;102127.56;;;12.07;100.00
30421;BME280;17218;54.070;10.012;2023-05-07T09:31:15;102123.41;;;12.25;100.00
30421;BME280;17218;54.070;10.012;2023-05-07T09:33:42;102132.25;;;12.47;100.00
30421;BME280;17218;54.070;10.012;2023-05-07T09:36:09;102136.81;;;12.87;100.00
30421;BME280;17218;54.070;10.012;2023-05-07T09:38:38;102139.41;;;12.86;100.00
30421;BME280;17218;54.070;10.012;2023-05-07T09:41:06;102137.75;;;13.00;100.00
30421;BME280;17218;54.070;10.012;2023-05-07T09:43:33;102132.66;;;13.26;100.00
30421;BME280;17218;54.070;10.012;2023-05-07T09:46:03;102137.03;;;13.36;100.00
30421;BME280;17218;54.070;10.012;2023-05-07T09:48:29;102140.44;;;13.24;100.00
30421;BME280;17218;54.070;10.012;2023-05-07T09:50:57;102137.84;;;13.15;100.00
30421;BME280;17218;54.070;10.012;2023-05-07T09:53:29;102130.00;;;13.08;100.00
30421;BME280;17218;54.070;10.012;2023-05-07T09:55:58;102128.25;;;13.09;100.00
30421;BME280;17218;54.070;10.012;2023-05-07T09:58:26;102124.03;;;13.34;100.00
30421;BME280;17218;54.070;10.012;2023-05-07T10:00:52;102131.94;;;13.63;100.00
30421;BME280;17218;54.070;10.012;2023-05-07T10:03:19;102137.88;;;13.32;100.00
30421;BME280;17218;54.070;10.012;2023-05-07T10:05:47;102141.31;;;13.23;100.00
30421;BME280;17218;54.070;10.012;2023-05-07T10:08:14;102139.59;;;13.23;100.00
30421;BME280;17218;54.070;10.012;2023-05-07T10:10:42;102134.31;;;13.05;100.00
30421;BME280;17218;54.070;10.012;2023-05-07T10:13:11;102139.56;;;13.11;100.00
30421;BME280;17218;54.070;10.012;2023-05-07T10:15:39;102141.16;;;12.87;100.00
30421;BME280;17218;54.070;10.012;2023-05-07T10:18:06;102134.28;;;13.00;100.00
30421;BME280;17218;54.070;10.012;2023-05-07T10:20:33;102136.00;;;12.96;100.00
30421;BME280;17218;54.070;10.012;2023-05-07T10:23:02;102134.31;;;13.05;100.00
30421;BME280;17218;54.070;10.012;2023-05-07T10:25:31;102130.00;;;13.07;100.00
30421;BME280;17218;54.070;10.012;2023-05-07T10:28:01;102131.72;;;13.08;100.00
30421;BME280;17218;54.070;10.012;2023-05-07T10:30:40;102131.84;;;13.50;100.00
30421;BME280;17218;54.070;10.012;2023-05-07T10:33:12;102137.94;;;13.46;100.00
30421;BME280;17218;54.070;10.012;2023-05-07T10:35:41;102131.03;;;13.57;100.00
30421;BME280;17218;54.070;10.012;2023-05-07T10:38:09;102125.03;;;13.88;100.00
30421;BME280;17218;54.070;10.012;2023-05-07T10:40:36;102115.50;;;14.03;100.00
30421;BME280;17218;54.070;10.012;2023-05-07T10:43:04;102121.56;;;14.19;100.00
30421;BME280;17218;54.070;10.012;2023-05-07T10:45:32;102115.44;;;13.64;100.00
30421;BME280;17218;54.070;10.012;2023-05-07T10:48:06;102120.69;;;14.07;100.00
30421;BME280;17218;54.070;10.012;2023-05-07T10:50:33;102121.56;;;13.89;100.00
30421;BME280;17218;54.070;10.012;2023-05-07T10:53:22;102124.19;;;14.14;100.00
30421;BME280;17218;54.070;10.012;2023-05-07T10:56:23;102119.78;;;14.52;100.00
30421;BME280;17218;54.070;10.012;2023-05-07T10:58:50;102114.53;;;14.88;100.00
30421;BME280;17218;54.070;10.012;2023-05-07T11:01:51;102106.50;;;15.31;100.00
30421;BME280;17218;54.070;10.012;2023-05-07T11:04:18;102114.03;;;15.78;100.00
30421;BME280;17218;54.070;10.012;2023-05-07T11:07:27;102093.78;;;16.09;100.00
30421;BME280;17218;54.070;10.012;2023-05-07T11:09:58;102093.44;;;16.49;100.00
30421;BME280;17218;54.070;10.012;2023-05-07T11:12:49;102101.63;;;16.95;100.00
30421;BME280;17218;54.070;10.012;2023-05-07T11:15:35;102088.09;;;17.32;100.00
30421;BME280;17218;54.070;10.012;2023-05-07T11:18:03;102093.38;;;17.27;100.00
30421;BME280;17218;54.070;10.012;2023-05-07T11:20:54;102084.53;;;17.93;100.00
30421;BME280;17218;54.070;10.012;2023-05-07T11:23:57;102087.03;;;17.99;100.00
30421;BME280;17218;54.070;10.012;2023-05-07T11:26:25;102096.34;;;16.99;100.00
30421;BME280;17218;54.070;10.012;2023-05-07T11:28:52;102098.78;;;17.76;100.00
30421;BME280;17218;54.070;10.012;2023-05-07T11:31:23;102087.31;;;18.36;100.00
30421;BME280;17218;54.070;10.012;2023-05-07T11:33:52;102079.00;;;18.09;100.00
30421;BME280;17218;54.070;10.012;2023-05-07T11:36:21;102087.81;;;18.98;100.00
30421;BME280;17218;54.070;10.012;2023-05-07T11:38:48;102071.69;;;19.17;100.00
30421;BME280;17218;54.070;10.012;2023-05-07T11:41:16;102067.81;;;20.72;100.00
30421;BME280;17218;54.070;10.012;2023-05-07T11:43:56;102073.88;;;21.06;100.00
30421;BME280;17218;54.070;10.012;2023-05-07T11:46:23;102066.53;;;21.44;96.40
30421;BME280;17218;54.070;10.012;2023-05-07T11:48:49;102065.09;;;23.11;94.03
30421;BME280;17218;54.070;10.012;2023-05-07T11:51:20;102059.59;;;24.45;83.62
30421;BME280;17218;54.070;10.012;2023-05-07T11:53:47;102057.06;;;25.54;66.49
30421;BME280;17218;54.070;10.012;2023-05-07T11:56:15;102062.53;;;25.51;68.19
30421;BME280;17218;54.070;10.012;2023-05-07T11:58:42;102060.59;;;24.61;67.53
30421;BME280;17218;54.070;10.012;2023-05-07T12:01:10;102066.53;;;25.42;66.05
30421;BME280;17218;54.070;10.012;2023-05-07T12:03:37;102056.16;;;26.91;59.32
30421;BME280;17218;54.070;10.012;2023-05-07T12:06:07;102059.78;;;25.72;63.95
30421;BME280;17218;54.070;10.012;2023-05-07T12:08:38;102058.78;;;24.62;67.83
30421;BME280;17218;54.070;10.012;2023-05-07T12:11:07;102053.75;;;23.08;69.51
30421;BME280;17218;54.070;10.012;2023-05-07T12:13:35;102055.09;;;22.24;78.44
30421;BME280;17218;54.070;10.012;2023-05-07T12:16:02;102056.09;;;21.68;85.65
30421;BME280;17218;54.070;10.012;2023-05-07T12:18:29;102060.19;;;21.21;89.22
30421;BME280;17218;54.070;10.012;2023-05-07T12:20:56;102066.00;;;20.09;94.92
30421;BME280;17218;54.070;10.012;2023-05-07T12:23:23;102060.84;;;19.33;100.00
30421;BME280;17218;54.070;10.012;2023-05-07T12:25:51;102053.75;;;20.41;100.00
30421;BME280;17218;54.070;10.012;2023-05-07T12:28:18;102059.34;;;20.29;96.58
30421;BME280;17218;54.070;10.012;2023-05-07T12:30:46;102063.19;;;21.39;89.10
30421;BME280;17218;54.070;10.012;2023-05-07T12:33:16;102052.47;;;21.71;88.82
30421;BME280;17218;54.070;10.012;2023-05-07T12:35:43;102062.13;;;21.72;83.42
30421;BME280;17218;54.070;10.012;2023-05-07T12:38:11;102052.41;;;22.00;86.27
30421;BME280;17218;54.070;10.012;2023-05-07T12:40:39;102055.72;;;23.25;81.31
30421;BME280;17218;54.070;10.012;2023-05-07T12:43:07;102062.91;;;24.29;71.63
30421;BME280;17218;54.070;10.012;2023-05-07T12:45:37;102060.41;;;24.05;68.69